sensor_id;sensor_type;location;lat;lon;timestamp;pressure;altitude;pressure_sealevel;temperature;humidity
21111;BME280;10713;51.912;4.494;2023-07-16T00:01:54;100706.03;;;18.11;100.00
21111;BME280;10713;51.912;4.494;2023-07-16T00:04:20;100706.03;;;18.11;100.00
21111;BME280;10713;51.912;4.494;2023-07-16T00:06:45;100711.59;;;18.08;100.00
21111;BME280;10713;51.912;4.494;2023-07-16T00:09:11;100712.81;;;18.04;100.00
21111;BME280;10713;51.912;4.494;2023-07-16T00:11:36;100708.63;;;17.99;100.00
21111;BME280;10713;51.912;4.494;2023-07-16T00:14:02;100713.34;;;17.96;100.00
21111;BME280;10713;51.912;4.494;2023-07-16T00:16:27;100713.97;;;17.99;100.00
21111;BME280;10713;51.912;4.494;2023-07-16T00:18:53;100721.03;;;18.00;100.00
21111;BME280;10713;51.912;4.494;2023-07-16T00:21:18;100712.28;;;17.98;100.00
21111;BME280;10713;51.912;4.494;2023-07-16T00:23:44;100715.03;;;17.97;100.00
21111;BME280;10713;51.912;4.494;2023-07-16T00:26:09;100707.38;;;17.92;100.00
21111;BME280;10713;51.912;4.494;2023-07-16T00:28:34;100722.09;;;17.98;100.00
21111;BME280;10713;51.912;4.494;2023-07-16T00:31:00;100720.28;;;17.98;100.00
21111;BME280;10713;51.912;4.494;2023-07-16T00:33:26;100719.75;;;17.93;100.00
21111;BME280;10713;51.912;4.494;2023-07-16T00:35:51;100711.88;;;17.92;100.00
21111;BME280;10713;51.912;4.494;2023-07-16T00:38:17;100725.09;;;17.93;100.00
21111;BME280;10713;51.912;4.494;2023-07-16T00:40:43;100717.31;;;17.90;100.00
21111;BME280;10713;51.912;4.494;2023-07-16T00:43:09;100723.84;;;17.86;100.00
21111;BME280;10713;51.912;4.494;2023-07-16T00:45:34;100719.44;;;17.85;100.00
21111;BME280;10713;51.912;4.494;2023-07-16T00:47:59;100728.44;;;17.84;100.00
21111;BME280;10713;51.912;4.494;2023-07-16T00:50:25;100725.13;;;17.81;100.00
21111;BME280;10713;51.912;4.494;2023-07-16T00:52:50;100736.44;;;17.84;100.00
21111;BME280;10713;51.912;4.494;2023-07-16T00:55:16;100726.75;;;17.83;100.00
21111;BME280;10713;51.912;4.494;2023-07-16T00:57:41;100730.34;;;17.82;100.00
21111;BME280;10713;51.912;4.494;2023-07-16T01:00:08;100726.53;;;17.86;100.00
21111;BME280;10713;51.912;4.494;2023-07-16T01:02:34;100722.78;;;17.89;100.00
21111;BME280;10713;51.912;4.494;2023-07-16T01:05:00;100730.03;;;17.87;100.00
21111;BME280;10713;51.912;4.494;2023-07-16T01:07:27;100737.28;;;17.85;100.00
21111;BME280;10713;51.912;4.494;2023-07-16T01:09:55;100731.59;;;17.76;100.00
21111;BME280;10713;51.912;4.494;2023-07-16T01:12:22;100730.88;;;17.74;100.00
21111;BME280;10713;51.912;4.494;2023-07-16T01:14:48;100731.72;;;17.75;100.00
21111;BME280;10713;51.912;4.494;2023-07-16T01:17:13;100729.06;;;17.75;100.00
21111;BME280;10713;51.912;4.494;2023-07-16T01:19:38;100738.91;;;17.74;100.00
21111;BME280;10713;51.912;4.494;2023-07-16T01:24:59;100734.41;;;17.75;100.00
21111;BME280;10713;51.912;4.494;2023-07-16T01:30:30;100732.81;;;17.72;100.00
21111;BME280;10713;51.912;4.494;2023-07-16T01:32:56;100724.03;;;17.70;100.00
21111;BME280;10713;51.912;4.494;2023-07-16T01:35:22;100726.09;;;17.67;100.00
21111;BME280;10713;51.912;4.494;2023-07-16T01:37:48;100731.41;;;17.67;100.00
21111;BME280;10713;51.912;4.494;2023-07-16T01:40:14;100743.69;;;17.69;100.00
21111;BME280;10713;51.912;4.494;2023-07-16T01:42:39;100735.78;;;17.68;100.00
21111;BME280;10713;51.912;4.494;2023-07-16T01:45:05;100735.69;;;17.69;100.00
21111;BME280;10713;51.912;4.494;2023-07-16T01:47:44;100744.34;;;17.73;100.00
21111;BME280;10713;51.912;4.494;2023-07-16T01:50:11;100746.91;;;17.74;100.00
21111;BME280;10713;51.912;4.494;2023-07-16T01:52:37;100735.56;;;17.71;100.00
21111;BME280;10713;51.912;4.494;2023-07-16T01:55:02;100739.97;;;17.72;100.00
21111;BME280;10713;51.912;4.494;2023-07-16T01:57:27;100739.97;;;17.72;100.00
21111;BME280;10713;51.912;4.494;2023-07-16T01:59:53;100742.84;;;17.69;100.00
21111;BME280;10713;51.912;4.494;2023-07-16T02:02:18;100741.13;;;17.68;100.00
21111;BME280;10713;51.912;4.494;2023-07-16T02:04:43;100739.22;;;17.70;100.00
21111;BME280;10713;51.912;4.494;2023-07-16T02:07:09;100740.41;;;17.66;100.00
21111;BME280;10713;51.912;4.494;2023-07-16T02:09:34;100749.69;;;17.60;100.00
21111;BME280;10713;51.912;4.494;2023-07-16T02:12:00;100739.00;;;17.60;100.00
21111;BME280;10713;51.912;4.494;2023-07-16T02:14:25;100748.81;;;17.60;100.00
21111;BME280;10713;51.912;4.494;2023-07-16T02:16:51;100747.34;;;17.55;100.00
21111;BME280;10713;51.912;4.494;2023-07-16T02:19:16;100746.38;;;17.56;100.00
21111;BME280;10713;51.912;4.494;2023-07-16T02:21:41;100739.22;;;17.57;100.00
21111;BME280;10713;51.912;4.494;2023-07-16T02:24:07;100738.56;;;17.53;100.00
21111;BME280;10713;51.912;4.494;2023-07-16T02:26:32;100734.97;;;17.54;100.00
21111;BME280;10713;51.912;4.494;2023-07-16T02:28:57;100742.84;;;17.56;100.00
21111;BME280;10713;51.912;4.494;2023-07-16T02:31:24;100740.31;;;17.54;100.00
21111;BME280;10713;51.912;4.494;2023-07-16T02:33:50;100738.06;;;17.48;100.00
21111;BME280;10713;51.912;4.494;2023-07-16T02:36:15;100742.53;;;17.48;100.00
21111;BME280;10713;51.912;4.494;2023-07-16T02:38:40;100748.84;;;17.47;100.00
21111;BME280;10713;51.912;4.494;2023-07-16T02:41:05;100750.44;;;17.49;100.00
21111;BME280;10713;51.912;4.494;2023-07-16T02:43:31;100748.53;;;17.51;100.00
21111;BME280;10713;51.912;4.494;2023-07-16T02:45:56;100750.31;;;17.51;100.00
21111;BME280;10713;51.912;4.494;2023-07-16T02:48:21;100748.41;;;17.53;100.00
21111;BME280;10713;51.912;4.494;2023-07-16T02:50:47;100750.75;;;17.58;100.00
21111;BME280;10713;51.912;4.494;2023-07-16T02:53:13;100750.09;;;17.54;100.00
21111;BME280;10713;51.912;4.494;2023-07-16T02:55:38;100757.91;;;17.44;100.00
21111;BME280;10713;51.912;4.494;2023-07-16T02:58:03;100756.84;;;17.34;100.00
21111;BME280;10713;51.912;4.494;2023-07-16T03:00:32;100754.91;;;17.36;100.00
21111;BME280;10713;51.912;4.494;2023-07-16T03:02:58;100753.22;;;17.35;100.00
21111;BME280;10713;51.912;4.494;2023-07-16T03:05:24;100756.94;;;17.32;100.00
21111;BME280;10713;51.912;4.494;2023-07-16T03:07:50;100753.28;;;17.33;100.00
21111;BME280;10713;51.912;4.494;2023-07-16T03:10:15;100763.13;;;17.33;100.00
21111;BME280;10713;51.912;4.494;2023-07-16T03:12:41;100769.53;;;17.30;100.00
21111;BME280;10713;51.912;4.494;2023-07-16T03:15:07;100766.13;;;17.28;100.00
21111;BME280;10713;51.912;4.494;2023-07-16T03:17:32;100769.53;;;17.30;100.00
21111;BME280;10713;51.912;4.494;2023-07-16T03:19:57;100778.78;;;17.25;100.00
21111;BME280;10713;51.912;4.494;2023-07-16T03:22:23;100782.53;;;17.22;100.00
21111;BME280;10713;51.912;4.494;2023-07-16T03:24:48;100785.09;;;17.24;100.00
21111;BME280;10713;51.912;4.494;2023-07-16T03:27:14;100781.47;;;17.25;100.00
21111;BME280;10713;51.912;4.494;2023-07-16T03:29:39;100791.50;;;17.21;100.00
21111;BME280;10713;51.912;4.494;2023-07-16T03:32:04;100784.47;;;17.20;100.00
21111;BME280;10713;51.912;4.494;2023-07-16T03:34:30;100788.94;;;17.20;100.00
21111;BME280;10713;51.912;4.494;2023-07-16T03:36:55;100784.88;;;17.27;100.00
21111;BME280;10713;51.912;4.494;2023-07-16T03:39:20;100796.53;;;17.26;100.00
21111;BME280;10713;51.912;4.494;2023-07-16T03:41:46;100805.47;;;17.25;100.00
21111;BME280;10713;51.912;4.494;2023-07-16T03:44:11;100807.28;;;17.24;100.00
21111;BME280;10713;51.912;4.494;2023-07-16T03:46:37;100811.47;;;17.28;100.00
21111;BME280;10713;51.912;4.494;2023-07-16T03:49:02;100809.53;;;17.30;100.00
21111;BME280;10713;51.912;4.494;2023-07-16T03:51:27;100815.72;;;17.31;100.00
21111;BME280;10713;51.912;4.494;2023-07-16T03:53:53;100814.78;;;17.32;100.00
21111;BME280;10713;51.912;4.494;2023-07-16T03:56:18;100815.41;;;17.36;100.00
21111;BME280;10713;51.912;4.494;2023-07-16T03:58:43;100813.72;;;17.34;100.00
21111;BME280;10713;51.912;4.494;2023-07-16T04:01:09;100818.09;;;17.36;100.00
21111;BME280;10713;51.912;4.494;2023-07-16T04:03:35;100817.78;;;17.40;100.00
21111;BME280;10713;51.912;4.494;2023-07-16T04:06:04;100816.91;;;17.40;100.00
21111;BME280;10713;51.912;4.494;2023-07-16T04:08:30;100824.63;;;17.44;100.00
21111;BME280;10713;51.912;4.494;2023-07-16T04:10:55;100833.16;;;17.49;100.00
21111;BME280;10713;51.912;4.494;2023-07-16T04:13:20;100829.44;;;17.65;100.00
21111;BME280;10713;51.912;4.494;2023-07-16T04:15:46;100831.72;;;17.84;100.00
21111;BME280;10713;51.912;4.494;2023-07-16T04:18:11;100828.19;;;18.09;100.00
21111;BME280;10713;51.912;4.494;2023-07-16T04:20:36;100830.16;;;18.31;100.00
21111;BME280;10713;51.912;4.494;2023-07-16T04:23:02;100831.16;;;18.54;100.00
21111;BME280;10713;51.912;4.494;2023-07-16T04:25:27;100818.94;;;18.75;100.00
21111;BME280;10713;51.912;4.494;2023-07-16T04:27:52;100827.47;;;19.04;100.00
21111;BME280;10713;51.912;4.494;2023-07-16T04:30:18;100826.50;;;19.41;100.00
21111;BME280;10713;51.912;4.494;2023-07-16T04:32:43;100828.06;;;19.67;100.00
21111;BME280;10713;51.912;4.494;2023-07-16T04:35:08;100830.88;;;19.88;100.00
21111;BME280;10713;51.912;4.494;2023-07-16T04:37:34;100834.19;;;19.92;100.00
21111;BME280;10713;51.912;4.494;2023-07-16T04:39:59;100831.97;;;19.74;100.00
21111;BME280;10713;51.912;4.494;2023-07-16T04:42:24;100837.28;;;19.63;100.00
21111;BME280;10713;51.912;4.494;2023-07-16T04:44:50;100838.44;;;19.48;100.00
21111;BME280;10713;51.912;4.494;2023-07-16T04:47:15;100843.28;;;19.43;100.00
21111;BME280;10713;51.912;4.494;2023-07-16T04:49:40;100842.16;;;19.34;100.00
21111;BME280;10713;51.912;4.494;2023-07-16T04:52:06;100833.94;;;19.84;100.00
21111;BME280;10713;51.912;4.494;2023-07-16T04:54:35;100841.22;;;20.49;100.00
21111;BME280;10713;51.912;4.494;2023-07-16T04:57:01;100848.94;;;20.86;100.00
21111;BME280;10713;51.912;4.494;2023-07-16T04:59:26;100835.28;;;21.53;100.00
21111;BME280;10713;51.912;4.494;2023-07-16T05:01:52;100837.81;;;22.27;100.00
21111;BME280;10713;51.912;4.494;2023-07-16T05:04:17;100839.06;;;22.64;100.00
21111;BME280;10713;51.912;4.494;2023-07-16T05:06:42;100834.88;;;23.00;100.00
21111;BME280;10713;51.912;4.494;2023-07-16T05:09:07;100842.53;;;23.44;100.00
21111;BME280;10713;51.912;4.494;2023-07-16T05:11:33;100840.34;;;23.76;100.00
21111;BME280;10713;51.912;4.494;2023-07-16T05:13:58;100839.03;;;24.27;100.00
21111;BME280;10713;51.912;4.494;2023-07-16T05:16:23;100829.16;;;24.18;100.00
21111;BME280;10713;51.912;4.494;2023-07-16T05:18:49;100842.72;;;23.89;100.00
21111;BME280;10713;51.912;4.494;2023-07-16T05:21:14;100840.19;;;24.25;100.00
21111;BME280;10713;51.912;4.494;2023-07-16T05:23:39;100841.53;;;24.39;100.00
21111;BME280;10713;51.912;4.494;2023-07-16T05:26:05;100853.06;;;24.86;100.00
21111;BME280;10713;51.912;4.494;2023-07-16T05:28:30;100841.53;;;25.30;100.00
21111;BME280;10713;51.912;4.494;2023-07-16T05:31:00;100838.81;;;25.74;100.00
21111;BME280;10713;51.912;4.494;2023-07-16T05:33:25;100835.53;;;26.14;100.00
21111;BME280;10713;51.912;4.494;2023-07-16T05:35:50;100846.22;;;26.24;100.00
21111;BME280;10713;51.912;4.494;2023-07-16T05:38:16;100847.50;;;26.46;100.00
21111;BME280;10713;51.912;4.494;2023-07-16T05:40:41;100855.53;;;26.56;100.00
21111;BME280;10713;51.912;4.494;2023-07-16T05:43:06;100857.34;;;26.13;100.00
21111;BME280;10713;51.912;4.494;2023-07-16T05:45:32;100866.97;;;25.89;100.00
21111;BME280;10713;51.912;4.494;2023-07-16T05:47:57;100863.28;;;25.28;100.00
21111;BME280;10713;51.912;4.494;2023-07-16T05:50:22;100871.31;;;24.75;100.00
21111;BME280;10713;51.912;4.494;2023-07-16T05:52:48;100877.34;;;24.31;100.00
21111;BME280;10713;51.912;4.494;2023-07-16T05:55:14;100875.34;;;24.33;100.00
21111;BME280;10713;51.912;4.494;2023-07-16T05:57:40;100874.84;;;25.03;100.00
21111;BME280;10713;51.912;4.494;2023-07-16T06:00:05;100870.06;;;25.50;100.00
21111;BME280;10713;51.912;4.494;2023-07-16T06:02:32;100873.25;;;26.16;100.00
21111;BME280;10713;51.912;4.494;2023-07-16T06:04:57;100875.75;;;26.94;95.59
21111;BME280;10713;51.912;4.494;2023-07-16T06:07:22;100872.97;;;27.45;89.42
21111;BME280;10713;51.912;4.494;2023-07-16T06:09:48;100874.09;;;28.07;88.84
21111;BME280;10713;51.912;4.494;2023-07-16T06:12:13;100881.91;;;28.11;83.58
21111;BME280;10713;51.912;4.494;2023-07-16T06:14:39;100883.63;;;27.87;81.26
21111;BME280;10713;51.912;4.494;2023-07-16T06:17:04;100881.09;;;27.20;80.77
21111;BME280;10713;51.912;4.494;2023-07-16T06:19:30;100882.03;;;26.18;85.03
21111;BME280;10713;51.912;4.494;2023-07-16T06:21:55;100900.91;;;25.22;99.19
21111;BME280;10713;51.912;4.494;2023-07-16T06:24:21;100900.78;;;24.31;100.00
21111;BME280;10713;51.912;4.494;2023-07-16T06:26:46;100910.28;;;23.39;100.00
21111;BME280;10713;51.912;4.494;2023-07-16T06:29:13;100909.75;;;22.76;100.00
21111;BME280;10713;51.912;4.494;2023-07-16T06:31:38;100914.59;;;22.41;100.00
21111;BME280;10713;51.912;4.494;2023-07-16T06:34:04;100907.28;;;22.63;100.00
21111;BME280;10713;51.912;4.494;2023-07-16T06:36:29;100923.59;;;23.89;100.00
21111;BME280;10713;51.912;4.494;2023-07-16T06:38:54;100913.81;;;24.45;100.00
21111;BME280;10713;51.912;4.494;2023-07-16T06:41:20;100923.38;;;24.67;100.00
21111;BME280;10713;51.912;4.494;2023-07-16T06:43:45;100910.94;;;24.56;100.00
21111;BME280;10713;51.912;4.494;2023-07-16T06:46:10;100925.28;;;24.10;100.00
21111;BME280;10713;51.912;4.494;2023-07-16T06:48:36;100923.19;;;23.74;100.00
21111;BME280;10713;51.912;4.494;2023-07-16T06:51:01;100929.97;;;23.49;100.00
21111;BME280;10713;51.912;4.494;2023-07-16T06:53:26;100930.53;;;23.14;100.00
21111;BME280;10713;51.912;4.494;2023-07-16T06:55:52;100955.03;;;22.61;100.00
21111;BME280;10713;51.912;4.494;2023-07-16T06:58:17;100945.16;;;21.98;100.00
21111;BME280;10713;51.912;4.494;2023-07-16T07:00:43;100950.34;;;21.69;100.00
21111;BME280;10713;51.912;4.494;2023-07-16T07:03:11;100943.00;;;21.39;100.00
21111;BME280;10713;51.912;4.494;2023-07-16T07:05:40;100951.81;;;21.19;100.00
21111;BME280;10713;51.912;4.494;2023-07-16T07:08:06;100942.94;;;21.18;100.00
21111;BME280;10713;51.912;4.494;2023-07-16T07:10:31;100957.25;;;21.72;100.00
21111;BME280;10713;51.912;4.494;2023-07-16T07:12:58;100955.13;;;22.08;100.00
21111;BME280;10713;51.912;4.494;2023-07-16T07:15:23;100959.50;;;22.09;100.00
21111;BME280;10713;51.912;4.494;2023-07-16T07:17:48;100966.09;;;21.95;100.00
21111;BME280;10713;51.912;4.494;2023-07-16T07:20:15;100952.88;;;21.71;100.00
21111;BME280;10713;51.912;4.494;2023-07-16T07:22:40;100969.25;;;21.35;100.00
21111;BME280;10713;51.912;4.494;2023-07-16T07:25:06;100965.50;;;21.15;100.00
21111;BME280;10713;51.912;4.494;2023-07-16T07:27:31;100966.88;;;20.99;100.00
21111;BME280;10713;51.912;4.494;2023-07-16T07:29:56;100974.69;;;20.90;100.00
21111;BME280;10713;51.912;4.494;2023-07-16T07:32:22;100971.00;;;21.03;100.00
21111;BME280;10713;51.912;4.494;2023-07-16T07:34:47;100976.44;;;21.35;100.00
21111;BME280;10713;51.912;4.494;2023-07-16T07:37:13;100976.56;;;22.40;100.00
21111;BME280;10713;51.912;4.494;2023-07-16T07:39:38;100960.97;;;23.05;100.00
21111;BME280;10713;51.912;4.494;2023-07-16T07:42:04;100969.13;;;22.93;100.00
21111;BME280;10713;51.912;4.494;2023-07-16T07:44:30;100988.97;;;22.52;100.00
21111;BME280;10713;51.912;4.494;2023-07-16T07:46:55;100985.94;;;22.03;100.00
21111;BME280;10713;51.912;4.494;2023-07-16T07:49:20;100979.38;;;21.75;100.00
21111;BME280;10713;51.912;4.494;2023-07-16T07:51:45;100993.50;;;21.34;100.00
21111;BME280;10713;51.912;4.494;2023-07-16T07:54:14;100987.81;;;21.16;100.00
21111;BME280;10713;51.912;4.494;2023-07-16T07:56:39;101003.06;;;21.27;100.00
21111;BME280;10713;51.912;4.494;2023-07-16T07:59:04;101005.47;;;21.52;100.00
21111;BME280;10713;51.912;4.494;2023-07-16T08:01:30;101009.59;;;21.56;100.00
21111;BME280;10713;51.912;4.494;2023-07-16T08:03:56;101017.63;;;21.68;100.00
21111;BME280;10713;51.912;4.494;2023-07-16T08:06:21;101009.25;;;22.03;100.00
21111;BME280;10713;51.912;4.494;2023-07-16T08:08:46;101006.06;;;22.51;100.00
21111;BME280;10713;51.912;4.494;2023-07-16T08:11:11;101002.09;;;23.16;100.00
21111;BME280;10713;51.912;4.494;2023-07-16T08:13:37;100994.53;;;23.80;100.00
21111;BME280;10713;51.912;4.494;2023-07-16T08:16:02;101001.66;;;23.81;100.00
21111;BME280;10713;51.912;4.494;2023-07-16T08:18:28;101002.19;;;23.65;100.00
21111;BME280;10713;51.912;4.494;2023-07-16T08:20:53;100998.00;;;23.22;100.00
21111;BME280;10713;51.912;4.494;2023-07-16T08:23:18;101012.84;;;22.76;100.00
21111;BME280;10713;51.912;4.494;2023-07-16T08:25:43;101013.59;;;22.57;100.00
21111;BME280;10713;51.912;4.494;2023-07-16T08:28:09;101016.41;;;22.25;100.00
21111;BME280;10713;51.912;4.494;2023-07-16T08:30:35;101018.84;;;22.17;100.00
21111;BME280;10713;51.912;4.494;2023-07-16T08:33:00;101022.47;;;22.48;100.00
21111;BME280;10713;51.912;4.494;2023-07-16T08:35:26;101021.50;;;22.80;100.00
21111;BME280;10713;51.912;4.494;2023-07-16T08:37:51;101026.06;;;23.10;100.00
21111;BME280;10713;51.912;4.494;2023-07-16T08:40:16;101022.53;;;23.29;100.00
21111;BME280;10713;51.912;4.494;2023-07-16T08:42:44;101023.41;;;23.29;100.00
21111;BME280;10713;51.912;4.494;2023-07-16T08:45:10;101037.44;;;22.92;100.00
21111;BME280;10713;51.912;4.494;2023-07-16T08:47:36;101036.13;;;22.56;100.00
21111;BME280;10713;51.912;4.494;2023-07-16T08:50:02;101042.56;;;22.44;100.00
21111;BME280;10713;51.912;4.494;2023-07-16T08:52:28;101036.78;;;22.27;100.00
21111;BME280;10713;51.912;4.494;2023-07-16T08:54:54;101046.25;;;22.11;100.00
21111;BME280;10713;51.912;4.494;2023-07-16T08:57:20;101049.41;;;21.95;100.00
21111;BME280;10713;51.912;4.494;2023-07-16T08:59:48;101047.31;;;21.98;100.00
21111;BME280;10713;51.912;4.494;2023-07-16T09:02:18;101047.75;;;22.36;100.00
21111;BME280;10713;51.912;4.494;2023-07-16T09:04:46;101048.91;;;22.64;100.00
21111;BME280;10713;51.912;4.494;2023-07-16T09:07:12;101050.50;;;22.45;100.00
21111;BME280;10713;51.912;4.494;2023-07-16T09:09:37;101051.88;;;22.19;100.00
21111;BME280;10713;51.912;4.494;2023-07-16T09:12:03;101054.97;;;22.35;100.00
21111;BME280;10713;51.912;4.494;2023-07-16T09:14:28;101058.00;;;23.34;100.00
21111;BME280;10713;51.912;4.494;2023-07-16T09:16:53;101059.81;;;23.93;100.00
21111;BME280;10713;51.912;4.494;2023-07-16T09:19:20;101055.16;;;23.95;100.00
21111;BME280;10713;51.912;4.494;2023-07-16T09:21:47;101056.59;;;24.76;100.00
21111;BME280;10713;51.912;4.494;2023-07-16T09:24:12;101069.56;;;25.37;100.00
21111;BME280;10713;51.912;4.494;2023-07-16T09:26:38;101053.63;;;25.06;100.00
21111;BME280;10713;51.912;4.494;2023-07-16T09:29:06;101067.88;;;24.99;100.00
21111;BME280;10713;51.912;4.494;2023-07-16T09:31:33;101058.19;;;25.06;100.00
21111;BME280;10713;51.912;4.494;2023-07-16T09:33:58;101063.56;;;25.61;100.00
21111;BME280;10713;51.912;4.494;2023-07-16T09:36:26;101063.66;;;25.51;100.00
21111;BME280;10713;51.912;4.494;2023-07-16T09:38:53;101072.50;;;25.44;100.00
21111;BME280;10713;51.912;4.494;2023-07-16T09:41:20;101068.06;;;24.87;100.00
21111;BME280;10713;51.912;4.494;2023-07-16T09:43:46;101066.19;;;24.31;100.00
21111;BME280;10713;51.912;4.494;2023-07-16T09:46:11;101077.56;;;23.96;100.00
21111;BME280;10713;51.912;4.494;2023-07-16T09:48:37;101078.94;;;23.71;100.00
21111;BME280;10713;51.912;4.494;2023-07-16T09:51:02;101087.28;;;23.58;100.00
21111;BME280;10713;51.912;4.494;2023-07-16T09:53:30;101073.66;;;23.50;100.00
21111;BME280;10713;51.912;4.494;2023-07-16T09:55:58;101086.22;;;23.90;100.00
21111;BME280;10713;51.912;4.494;2023-07-16T09:58:25;101086.63;;;23.95;100.00
21111;BME280;10713;51.912;4.494;2023-07-16T10:00:52;101085.94;;;24.02;100.00
21111;BME280;10713;51.912;4.494;2023-07-16T10:03:18;101091.72;;;24.66;100.00
21111;BME280;10713;51.912;4.494;2023-07-16T10:05:43;101100.75;;;24.84;100.00
21111;BME280;10713;51.912;4.494;2023-07-16T10:08:17;101097.84;;;24.48;100.00
21111;BME280;10713;51.912;4.494;2023-07-16T10:13:12;101107.25;;;25.01;100.00
21111;BME280;10713;51.912;4.494;2023-07-16T10:15:38;101101.69;;;25.03;100.00
21111;BME280;10713;51.912;4.494;2023-07-16T10:18:05;101109.09;;;25.38;100.00
21111;BME280;10713;51.912;4.494;2023-07-16T10:20:35;101097.69;;;25.90;96.96
21111;BME280;10713;51.912;4.494;2023-07-16T10:23:18;101092.56;;;26.40;85.21
21111;BME280;10713;51.912;4.494;2023-07-16T10:26:00;101112.44;;;26.49;79.68
21111;BME280;10713;51.912;4.494;2023-07-16T10:28:26;101113.28;;;26.49;85.33
21111;BME280;10713;51.912;4.494;2023-07-16T10:30:52;101112.00;;;26.18;85.79
21111;BME280;10713;51.912;4.494;2023-07-16T10:33:17;101119.41;;;25.98;86.72
21111;BME280;10713;51.912;4.494;2023-07-16T10:35:45;101111.06;;;26.09;90.72
21111;BME280;10713;51.912;4.494;2023-07-16T10:38:11;101109.16;;;26.01;86.05
21111;BME280;10713;51.912;4.494;2023-07-16T10:40:45;101127.59;;;25.60;81.25
21111;BME280;10713;51.912;4.494;2023-07-16T10:43:12;101121.22;;;25.61;87.04
21111;BME280;10713;51.912;4.494;2023-07-16T10:45:37;101132.06;;;25.79;84.50
21111;BME280;10713;51.912;4.494;2023-07-16T10:48:03;101128.09;;;26.19;81.45
21111;BME280;10713;51.912;4.494;2023-07-16T10:50:32;101133.88;;;26.42;76.10
21111;BME280;10713;51.912;4.494;2023-07-16T10:52:58;101137.16;;;26.72;79.58
21111;BME280;10713;51.912;4.494;2023-07-16T10:55:23;101138.91;;;26.55;73.63
21111;BME280;10713;51.912;4.494;2023-07-16T10:57:51;101146.50;;;26.51;75.46
21111;BME280;10713;51.912;4.494;2023-07-16T11:00:17;101142.75;;;26.35;74.42
21111;BME280;10713;51.912;4.494;2023-07-16T11:02:43;101133.72;;;26.26;75.35
21111;BME280;10713;51.912;4.494;2023-07-16T11:05:12;101142.28;;;26.03;73.75
21111;BME280;10713;51.912;4.494;2023-07-16T11:07:46;101164.09;;;26.02;76.80
21111;BME280;10713;51.912;4.494;2023-07-16T11:10:12;101156.47;;;25.70;74.89
21111;BME280;10713;51.912;4.494;2023-07-16T11:12:37;101157.34;;;25.33;76.78
21111;BME280;10713;51.912;4.494;2023-07-16T11:15:03;101156.81;;;25.20;79.22
21111;BME280;10713;51.912;4.494;2023-07-16T11:17:28;101162.16;;;25.39;79.24
21111;BME280;10713;51.912;4.494;2023-07-16T11:19:55;101155.66;;;25.59;80.03
21111;BME280;10713;51.912;4.494;2023-07-16T11:22:25;101159.28;;;25.40;79.38
21111;BME280;10713;51.912;4.494;2023-07-16T11:24:52;101163.63;;;25.24;81.39
21111;BME280;10713;51.912;4.494;2023-07-16T11:27:20;101165.84;;;25.38;79.22
21111;BME280;10713;51.912;4.494;2023-07-16T11:29:53;101161.59;;;25.63;77.16
21111;BME280;10713;51.912;4.494;2023-07-16T11:32:33;101157.94;;;25.54;72.75
21111;BME280;10713;51.912;4.494;2023-07-16T11:35:00;101172.13;;;25.38;73.25
21111;BME280;10713;51.912;4.494;2023-07-16T11:37:27;101171.53;;;25.35;75.53
21111;BME280;10713;51.912;4.494;2023-07-16T11:40:06;101163.50;;;25.06;76.54
21111;BME280;10713;51.912;4.494;2023-07-16T11:42:37;101173.97;;;24.81;77.80
21111;BME280;10713;51.912;4.494;2023-07-16T11:45:03;101171.69;;;24.57;80.89
21111;BME280;10713;51.912;4.494;2023-07-16T11:47:30;101175.06;;;24.40;82.46
21111;BME280;10713;51.912;4.494;2023-07-16T11:49:56;101180.91;;;24.35;83.44
21111;BME280;10713;51.912;4.494;2023-07-16T11:52:27;101190.72;;;24.36;84.78
21111;BME280;10713;51.912;4.494;2023-07-16T11:54:53;101188.31;;;24.43;85.86
21111;BME280;10713;51.912;4.494;2023-07-16T11:57:18;101181.50;;;24.48;85.69
21111;BME280;10713;51.912;4.494;2023-07-16T11:59:44;101184.19;;;24.39;86.28
21111;BME280;10713;51.912;4.494;2023-07-16T12:02:09;101183.19;;;24.40;86.81
21111;BME280;10713;51.912;4.494;2023-07-16T12:04:35;101189.03;;;24.45;86.98
21111;BME280;10713;51.912;4.494;2023-07-16T12:07:00;101197.25;;;24.63;86.66
21111;BME280;10713;51.912;4.494;2023-07-16T12:09:25;101193.84;;;24.70;87.41
21111;BME280;10713;51.912;4.494;2023-07-16T12:11:51;101190.03;;;24.73;88.85
21111;BME280;10713;51.912;4.494;2023-07-16T12:14:16;101189.84;;;24.94;88.45
21111;BME280;10713;51.912;4.494;2023-07-16T12:16:41;101194.94;;;25.16;85.57
21111;BME280;10713;51.912;4.494;2023-07-16T12:19:08;101194.03;;;25.35;82.37
21111;BME280;10713;51.912;4.494;2023-07-16T12:21:34;101190.72;;;25.42;82.27
21111;BME280;10713;51.912;4.494;2023-07-16T12:24:00;101174.22;;;25.45;79.83
21111;BME280;10713;51.912;4.494;2023-07-16T12:26:25;101188.22;;;25.58;78.84
21111;BME280;10713;51.912;4.494;2023-07-16T12:28:51;101186.41;;;25.58;79.38
21111;BME280;10713;51.912;4.494;2023-07-16T12:31:16;101187.88;;;25.43;80.51
21111;BME280;10713;51.912;4.494;2023-07-16T12:33:43;101190.88;;;25.40;81.77
21111;BME280;10713;51.912;4.494;2023-07-16T12:36:08;101200.00;;;25.29;83.58
21111;BME280;10713;51.912;4.494;2023-07-16T12:38:34;101190.94;;;25.11;85.12
21111;BME280;10713;51.912;4.494;2023-07-16T12:40:59;101201.78;;;24.91;86.64
21111;BME280;10713;51.912;4.494;2023-07-16T12:43:24;101203.66;;;24.71;88.29
21111;BME280;10713;51.912;4.494;2023-07-16T12:45:49;101205.75;;;24.78;89.11